Emerald Leader — C6WP4 — position and weather

sailwx.info

Track history (hours):
 
Tides and Currents Weather Stations Pressure Air Temp Water Temp Dewpoint Dewpoint Depression Visibility Wind Speed Wind Dir Waves Ship Positions

Emerald Leader

Last reported at 2015-Mar-31 13:15 UTC. Time now 2015-Apr-01 01:15 UTC.
Position N 39°27' E 000°49'.

Length 176 m; draft 8.5 m.

Type: Cargo ship. MMSI: 308688000.

Date/timePositionNaut miles runAvg speedWind from/ knotsBaromVisibWave heightAir tempDewpointWater temp
2015-Mar-31 13:15N 39°27' E 000°49'1815.3
2015-Mar-31 12:04N 39°23' E 001°12'815.2
2015-Mar-31 11:33N 39°21' E 001°22'1514.6
2015-Mar-31 10:33N 39°18' E 001°40'1615.5
2015-Mar-31 09:33N 39°12' E 001°59'1615.7
2015-Mar-31 08:33N 39°07' E 002°18'1515.0
2015-Mar-31 07:33N 39°02' E 002°36'1515.3
2015-Mar-31 06:33N 38°56' E 002°55'1615.5
2015-Mar-31 05:33N 38°52' E 003°14'1615.6
2015-Mar-31 04:33N 38°48' E 003°33'1615.6
2015-Mar-31 03:33N 38°45' E 003°53'47314.3
2015-Mar-29 18:29N 36°42' E 013°31'1314.0
2015-Mar-29 17:33N 36°38' E 013°46'1414.1
2015-Mar-29 16:33N 36°34' E 014°03'1414.5
2015-Mar-29 15:33N 36°30' E 014°20'1514.8
2015-Mar-29 14:33N 36°26' E 014°38'  
2015-Mar-27 06:31N 40°35' E 028°41'  
2015-Mar-25 00:26N 40°44' E 029°40'1213.7
2015-Mar-24 23:33N 40°44' E 029°24'1110.7
2015-Mar-24 22:33N 40°43' E 029°10'1515.3
2015-Mar-24 21:34N 40°43' E 028°50'29813.0
2015-Mar-23 22:32N 37°36' E 023°50'1514.8
2015-Mar-23 21:33N 37°47' E 023°38'1111.0
2015-Mar-23 20:33N 37°58' E 023°36'0 0.1
2015-Mar-23 19:13N 37°58' E 023°36'0 0.0
2015-Mar-23 18:31N 37°58' E 023°36'0 0.0
2015-Mar-23 17:31N 37°58' E 023°36'0 0.0
2015-Mar-23 16:19N 37°58' E 023°36'0 0.0
2015-Mar-23 15:31N 37°58' E 023°36'2 2.3
2015-Mar-23 14:33N 37°55' E 023°37'2 1.6
2015-Mar-23 13:33N 37°54' E 023°37'0 0.3
2015-Mar-23 12:33N 37°54' E 023°37'1 1.3
2015-Mar-23 11:33N 37°53' E 023°38'1414.1
2015-Mar-23 10:33N 37°40' E 023°45'  
Track history (hours):
 
Tides and Currents Weather Stations Pressure Air Temp Water Temp Dewpoint Dewpoint Depression Visibility Wind Speed Wind Dir Waves Ship Positions

Emerald Leader

Last reported at 2015-Mar-31 13:15 UTC. Time now 2015-Apr-01 01:15 UTC.
Position N 39°27' E 000°49'.

Length 176 m; draft 8.5 m.

Type: Cargo ship. MMSI: 308688000.

Date/timePositionNaut miles runAvg speedWind from/ knotsBaromVisibWave heightAir tempDewpointWater temp
2015-Mar-31 13:15N 39°27' E 000°49'1815.3
2015-Mar-31 12:04N 39°23' E 001°12'815.2
2015-Mar-31 11:33N 39°21' E 001°22'1514.6
2015-Mar-31 10:33N 39°18' E 001°40'1615.5
2015-Mar-31 09:33N 39°12' E 001°59'1615.7
2015-Mar-31 08:33N 39°07' E 002°18'1515.0
2015-Mar-31 07:33N 39°02' E 002°36'1515.3
2015-Mar-31 06:33N 38°56' E 002°55'1615.5
2015-Mar-31 05:33N 38°52' E 003°14'1615.6
2015-Mar-31 04:33N 38°48' E 003°33'1615.6
2015-Mar-31 03:33N 38°45' E 003°53'47314.3
2015-Mar-29 18:29N 36°42' E 013°31'1314.0
2015-Mar-29 17:33N 36°38' E 013°46'1414.1
2015-Mar-29 16:33N 36°34' E 014°03'1414.5
2015-Mar-29 15:33N 36°30' E 014°20'1514.8
2015-Mar-29 14:33N 36°26' E 014°38'  
2015-Mar-27 06:31N 40°35' E 028°41'  
2015-Mar-25 00:26N 40°44' E 029°40'1213.7
2015-Mar-24 23:33N 40°44' E 029°24'1110.7
2015-Mar-24 22:33N 40°43' E 029°10'1515.3
2015-Mar-24 21:34N 40°43' E 028°50'29813.0
2015-Mar-23 22:32N 37°36' E 023°50'1514.8
2015-Mar-23 21:33N 37°47' E 023°38'1111.0
2015-Mar-23 20:33N 37°58' E 023°36'0 0.1
2015-Mar-23 19:13N 37°58' E 023°36'0 0.0
2015-Mar-23 18:31N 37°58' E 023°36'0 0.0
2015-Mar-23 17:31N 37°58' E 023°36'0 0.0
2015-Mar-23 16:19N 37°58' E 023°36'0 0.0
2015-Mar-23 15:31N 37°58' E 023°36'2 2.3
2015-Mar-23 14:33N 37°55' E 023°37'2 1.6
2015-Mar-23 13:33N 37°54' E 023°37'0 0.3
2015-Mar-23 12:33N 37°54' E 023°37'1 1.3
2015-Mar-23 11:33N 37°53' E 023°38'1414.1
2015-Mar-23 10:33N 37°40' E 023°45'  

Dump ship's entire track history